sensor_id;sensor_type;location;lat;lon;timestamp;temperature;humidity
54614;DHT22;40514;52.758;6.360;2022-08-25T00:00:21;23.10;99.90
54614;DHT22;40514;52.758;6.360;2022-08-25T00:02:47;23.00;99.90
54614;DHT22;40514;52.758;6.360;2022-08-25T00:05:13;23.00;99.90
54614;DHT22;40514;52.758;6.360;2022-08-25T00:07:39;23.00;99.90
54614;DHT22;40514;52.758;6.360;2022-08-25T00:10:05;22.90;99.90
54614;DHT22;40514;52.758;6.360;2022-08-25T00:12:31;22.90;99.90
54614;DHT22;40514;52.758;6.360;2022-08-25T00:14:58;22.90;99.90
54614;DHT22;40514;52.758;6.360;2022-08-25T00:17:24;22.80;99.90
54614;DHT22;40514;52.758;6.360;2022-08-25T00:19:49;22.80;99.90
54614;DHT22;40514;52.758;6.360;2022-08-25T00:22:16;22.80;99.90
54614;DHT22;40514;52.758;6.360;2022-08-25T00:24:42;22.70;99.90
54614;DHT22;40514;52.758;6.360;2022-08-25T00:27:07;22.70;99.90
54614;DHT22;40514;52.758;6.360;2022-08-25T00:29:35;22.70;99.90
54614;DHT22;40514;52.758;6.360;2022-08-25T00:32:03;22.60;99.90
54614;DHT22;40514;52.758;6.360;2022-08-25T00:34:33;22.60;99.90
54614;DHT22;40514;52.758;6.360;2022-08-25T00:36:59;22.60;99.90
54614;DHT22;40514;52.758;6.360;2022-08-25T00:39:26;22.60;99.90
54614;DHT22;40514;52.758;6.360;2022-08-25T00:41:54;22.60;99.90
54614;DHT22;40514;52.758;6.360;2022-08-25T00:44:22;22.60;99.90
54614;DHT22;40514;52.758;6.360;2022-08-25T00:46:51;22.60;99.90
54614;DHT22;40514;52.758;6.360;2022-08-25T00:49:38;22.50;99.90
54614;DHT22;40514;52.758;6.360;2022-08-25T00:52:10;22.50;99.90
54614;DHT22;40514;52.758;6.360;2022-08-25T00:54:45;22.40;99.90
54614;DHT22;40514;52.758;6.360;2022-08-25T00:57:13;22.40;99.90
54614;DHT22;40514;52.758;6.360;2022-08-25T00:59:40;22.40;99.90
54614;DHT22;40514;52.758;6.360;2022-08-25T01:02:07;22.40;99.90
54614;DHT22;40514;52.758;6.360;2022-08-25T01:04:33;22.30;99.90
54614;DHT22;40514;52.758;6.360;2022-08-25T01:07:00;22.30;99.90
54614;DHT22;40514;52.758;6.360;2022-08-25T01:09:29;22.20;99.90
54614;DHT22;40514;52.758;6.360;2022-08-25T01:11:57;22.20;99.90
54614;DHT22;40514;52.758;6.360;2022-08-25T01:14:24;22.20;99.90
54614;DHT22;40514;52.758;6.360;2022-08-25T01:16:51;22.20;99.90
54614;DHT22;40514;52.758;6.360;2022-08-25T01:19:17;22.20;99.70
54614;DHT22;40514;52.758;6.360;2022-08-25T01:21:53;22.20;99.30
54614;DHT22;40514;52.758;6.360;2022-08-25T01:24:30;22.20;99.40
54614;DHT22;40514;52.758;6.360;2022-08-25T01:26:59;22.20;99.20
54614;DHT22;40514;52.758;6.360;2022-08-25T01:29:26;22.10;99.00
54614;DHT22;40514;52.758;6.360;2022-08-25T01:31:53;22.10;98.80
54614;DHT22;40514;52.758;6.360;2022-08-25T01:34:23;22.10;98.50
54614;DHT22;40514;52.758;6.360;2022-08-25T01:36:50;22.00;98.70
54614;DHT22;40514;52.758;6.360;2022-08-25T01:39:16;22.00;98.60
54614;DHT22;40514;52.758;6.360;2022-08-25T01:41:59;22.00;98.50
54614;DHT22;40514;52.758;6.360;2022-08-25T01:44:31;21.90;98.30
54614;DHT22;40514;52.758;6.360;2022-08-25T01:46:57;21.90;98.20
54614;DHT22;40514;52.758;6.360;2022-08-25T01:49:23;21.90;98.10
54614;DHT22;40514;52.758;6.360;2022-08-25T01:51:56;21.90;98.00
54614;DHT22;40514;52.758;6.360;2022-08-25T01:54:22;21.90;97.60
54614;DHT22;40514;52.758;6.360;2022-08-25T01:56:48;21.80;97.80
54614;DHT22;40514;52.758;6.360;2022-08-25T01:59:15;21.80;97.70
54614;DHT22;40514;52.758;6.360;2022-08-25T02:01:41;21.80;97.40
54614;DHT22;40514;52.758;6.360;2022-08-25T02:04:06;21.80;97.70
54614;DHT22;40514;52.758;6.360;2022-08-25T02:06:33;21.80;97.60
54614;DHT22;40514;52.758;6.360;2022-08-25T02:09:06;21.80;97.40
54614;DHT22;40514;52.758;6.360;2022-08-25T02:11:32;21.70;97.20
54614;DHT22;40514;52.758;6.360;2022-08-25T02:13:58;21.70;97.20
54614;DHT22;40514;52.758;6.360;2022-08-25T02:16:27;21.70;97.10
54614;DHT22;40514;52.758;6.360;2022-08-25T02:18:54;21.70;97.10
54614;DHT22;40514;52.758;6.360;2022-08-25T02:21:20;21.70;97.00
54614;DHT22;40514;52.758;6.360;2022-08-25T02:23:46;21.70;97.00
54614;DHT22;40514;52.758;6.360;2022-08-25T02:26:12;21.60;97.00
54614;DHT22;40514;52.758;6.360;2022-08-25T02:28:42;21.60;97.00
54614;DHT22;40514;52.758;6.360;2022-08-25T02:31:08;21.60;96.90
54614;DHT22;40514;52.758;6.360;2022-08-25T02:33:34;21.60;96.90
54614;DHT22;40514;52.758;6.360;2022-08-25T02:36:00;21.50;96.80
54614;DHT22;40514;52.758;6.360;2022-08-25T02:38:29;21.50;96.70
54614;DHT22;40514;52.758;6.360;2022-08-25T02:40:58;21.50;96.80
54614;DHT22;40514;52.758;6.360;2022-08-25T02:43:25;21.40;96.70
54614;DHT22;40514;52.758;6.360;2022-08-25T02:45:52;21.40;96.80
54614;DHT22;40514;52.758;6.360;2022-08-25T02:48:17;21.40;96.70
54614;DHT22;40514;52.758;6.360;2022-08-25T02:50:48;21.40;96.80
54614;DHT22;40514;52.758;6.360;2022-08-25T02:53:16;21.40;96.70
54614;DHT22;40514;52.758;6.360;2022-08-25T02:55:42;21.40;96.80
54614;DHT22;40514;52.758;6.360;2022-08-25T02:58:09;21.40;96.70
54614;DHT22;40514;52.758;6.360;2022-08-25T03:00:36;21.30;96.60
54614;DHT22;40514;52.758;6.360;2022-08-25T03:03:02;21.30;96.60
54614;DHT22;40514;52.758;6.360;2022-08-25T03:05:28;21.30;96.60
54614;DHT22;40514;52.758;6.360;2022-08-25T03:07:53;21.30;96.60
54614;DHT22;40514;52.758;6.360;2022-08-25T03:10:19;21.30;96.60
54614;DHT22;40514;52.758;6.360;2022-08-25T03:12:45;21.30;96.60
54614;DHT22;40514;52.758;6.360;2022-08-25T03:15:12;21.20;96.50
54614;DHT22;40514;52.758;6.360;2022-08-25T03:17:40;21.30;96.50
54614;DHT22;40514;52.758;6.360;2022-08-25T03:20:06;21.20;96.50
54614;DHT22;40514;52.758;6.360;2022-08-25T03:22:32;21.20;96.50
54614;DHT22;40514;52.758;6.360;2022-08-25T03:24:58;21.20;96.50
54614;DHT22;40514;52.758;6.360;2022-08-25T03:27:43;21.10;96.50
54614;DHT22;40514;52.758;6.360;2022-08-25T03:30:10;21.10;96.50
54614;DHT22;40514;52.758;6.360;2022-08-25T03:32:36;21.00;96.50
54614;DHT22;40514;52.758;6.360;2022-08-25T03:35:02;21.00;96.50
54614;DHT22;40514;52.758;6.360;2022-08-25T03:37:28;21.00;96.50
54614;DHT22;40514;52.758;6.360;2022-08-25T03:39:53;21.00;96.50
54614;DHT22;40514;52.758;6.360;2022-08-25T03:42:19;20.90;96.50
54614;DHT22;40514;52.758;6.360;2022-08-25T03:44:44;21.00;96.60
54614;DHT22;40514;52.758;6.360;2022-08-25T03:47:10;20.90;96.50
54614;DHT22;40514;52.758;6.360;2022-08-25T03:49:35;20.90;96.50
54614;DHT22;40514;52.758;6.360;2022-08-25T03:52:01;20.90;96.50
54614;DHT22;40514;52.758;6.360;2022-08-25T03:54:27;20.90;96.50
54614;DHT22;40514;52.758;6.360;2022-08-25T03:56:53;21.10;96.50
54614;DHT22;40514;52.758;6.360;2022-08-25T03:59:18;20.90;96.50
54614;DHT22;40514;52.758;6.360;2022-08-25T04:01:46;20.90;96.50
54614;DHT22;40514;52.758;6.360;2022-08-25T04:04:13;20.90;96.50
54614;DHT22;40514;52.758;6.360;2022-08-25T04:06:40;20.80;96.50
54614;DHT22;40514;52.758;6.360;2022-08-25T04:09:06;20.80;96.50
54614;DHT22;40514;52.758;6.360;2022-08-25T04:11:32;20.80;96.50
54614;DHT22;40514;52.758;6.360;2022-08-25T04:13:58;20.80;96.40
54614;DHT22;40514;52.758;6.360;2022-08-25T04:16:28;20.80;96.50
54614;DHT22;40514;52.758;6.360;2022-08-25T04:18:56;20.80;96.50
54614;DHT22;40514;52.758;6.360;2022-08-25T04:21:22;20.70;96.50
54614;DHT22;40514;52.758;6.360;2022-08-25T04:23:49;20.70;96.60
54614;DHT22;40514;52.758;6.360;2022-08-25T04:28:43;20.70;96.70
54614;DHT22;40514;52.758;6.360;2022-08-25T04:31:10;20.70;96.70
54614;DHT22;40514;52.758;6.360;2022-08-25T04:33:38;20.60;96.70
54614;DHT22;40514;52.758;6.360;2022-08-25T04:36:04;20.60;96.70
54614;DHT22;40514;52.758;6.360;2022-08-25T04:38:31;20.60;96.70
54614;DHT22;40514;52.758;6.360;2022-08-25T04:41:01;20.60;96.80
54614;DHT22;40514;52.758;6.360;2022-08-25T04:43:28;20.50;96.80
54614;DHT22;40514;52.758;6.360;2022-08-25T04:45:54;20.50;96.90
54614;DHT22;40514;52.758;6.360;2022-08-25T04:48:20;20.50;96.90
54614;DHT22;40514;52.758;6.360;2022-08-25T04:50:46;20.40;97.00
54614;DHT22;40514;52.758;6.360;2022-08-25T04:53:12;20.40;97.10
54614;DHT22;40514;52.758;6.360;2022-08-25T04:55:45;20.40;97.20
54614;DHT22;40514;52.758;6.360;2022-08-25T04:58:12;20.30;97.30
54614;DHT22;40514;52.758;6.360;2022-08-25T05:00:38;20.30;97.40
54614;DHT22;40514;52.758;6.360;2022-08-25T05:03:05;20.30;97.40
54614;DHT22;40514;52.758;6.360;2022-08-25T05:05:31;20.30;97.40
54614;DHT22;40514;52.758;6.360;2022-08-25T05:07:59;20.20;97.50
54614;DHT22;40514;52.758;6.360;2022-08-25T05:10:25;20.30;97.50
54614;DHT22;40514;52.758;6.360;2022-08-25T05:12:50;20.20;97.50
54614;DHT22;40514;52.758;6.360;2022-08-25T05:15:16;20.20;97.50
54614;DHT22;40514;52.758;6.360;2022-08-25T05:18:00;20.20;97.60
54614;DHT22;40514;52.758;6.360;2022-08-25T05:20:26;20.20;97.60
54614;DHT22;40514;52.758;6.360;2022-08-25T05:22:51;20.20;97.70
54614;DHT22;40514;52.758;6.360;2022-08-25T05:25:17;20.20;97.70
54614;DHT22;40514;52.758;6.360;2022-08-25T05:27:43;20.30;97.70
54614;DHT22;40514;52.758;6.360;2022-08-25T05:30:10;20.20;97.70
54614;DHT22;40514;52.758;6.360;2022-08-25T05:32:36;20.30;97.80
54614;DHT22;40514;52.758;6.360;2022-08-25T05:35:03;20.30;97.80
54614;DHT22;40514;52.758;6.360;2022-08-25T05:37:28;20.30;97.90
54614;DHT22;40514;52.758;6.360;2022-08-25T05:39:54;20.30;97.90
54614;DHT22;40514;52.758;6.360;2022-08-25T05:42:19;20.30;97.90
54614;DHT22;40514;52.758;6.360;2022-08-25T05:44:46;20.40;97.90
54614;DHT22;40514;52.758;6.360;2022-08-25T05:47:12;20.40;97.90
54614;DHT22;40514;52.758;6.360;2022-08-25T05:49:37;20.40;97.90
54614;DHT22;40514;52.758;6.360;2022-08-25T05:52:03;20.50;98.00
54614;DHT22;40514;52.758;6.360;2022-08-25T05:54:29;20.50;97.90
54614;DHT22;40514;52.758;6.360;2022-08-25T05:56:56;20.70;97.90
54614;DHT22;40514;52.758;6.360;2022-08-25T05:59:22;20.60;98.10
54614;DHT22;40514;52.758;6.360;2022-08-25T06:01:48;20.60;97.90
54614;DHT22;40514;52.758;6.360;2022-08-25T06:04:32;20.60;97.90
54614;DHT22;40514;52.758;6.360;2022-08-25T06:06:57;20.70;98.10
54614;DHT22;40514;52.758;6.360;2022-08-25T06:09:24;20.70;97.90
54614;DHT22;40514;52.758;6.360;2022-08-25T06:11:49;20.80;98.00
54614;DHT22;40514;52.758;6.360;2022-08-25T06:14:15;20.80;98.00
54614;DHT22;40514;52.758;6.360;2022-08-25T06:16:41;20.90;98.10
54614;DHT22;40514;52.758;6.360;2022-08-25T06:19:08;20.90;98.10
54614;DHT22;40514;52.758;6.360;2022-08-25T06:21:34;20.80;98.10
54614;DHT22;40514;52.758;6.360;2022-08-25T06:24:00;21.10;98.00
54614;DHT22;40514;52.758;6.360;2022-08-25T06:26:25;21.20;98.00
54614;DHT22;40514;52.758;6.360;2022-08-25T06:28:51;21.30;98.00
54614;DHT22;40514;52.758;6.360;2022-08-25T06:31:19;21.40;97.80
54614;DHT22;40514;52.758;6.360;2022-08-25T06:33:45;21.50;97.70
54614;DHT22;40514;52.758;6.360;2022-08-25T06:36:11;21.60;97.80
54614;DHT22;40514;52.758;6.360;2022-08-25T06:38:36;21.70;97.70
54614;DHT22;40514;52.758;6.360;2022-08-25T06:41:04;21.80;97.70
54614;DHT22;40514;52.758;6.360;2022-08-25T06:43:31;21.90;97.50
54614;DHT22;40514;52.758;6.360;2022-08-25T06:46:15;22.00;97.50
54614;DHT22;40514;52.758;6.360;2022-08-25T06:48:41;22.10;97.60
54614;DHT22;40514;52.758;6.360;2022-08-25T06:51:08;22.20;97.50
54614;DHT22;40514;52.758;6.360;2022-08-25T06:53:34;22.20;97.50
54614;DHT22;40514;52.758;6.360;2022-08-25T06:56:00;22.30;97.40
54614;DHT22;40514;52.758;6.360;2022-08-25T06:58:26;22.40;97.30
54614;DHT22;40514;52.758;6.360;2022-08-25T07:00:51;22.50;97.20
54614;DHT22;40514;52.758;6.360;2022-08-25T07:03:17;22.70;97.20
54614;DHT22;40514;52.758;6.360;2022-08-25T07:05:51;22.80;97.10
54614;DHT22;40514;52.758;6.360;2022-08-25T07:08:17;22.90;97.00
54614;DHT22;40514;52.758;6.360;2022-08-25T07:10:43;23.00;96.90
54614;DHT22;40514;52.758;6.360;2022-08-25T07:13:09;23.10;96.80
54614;DHT22;40514;52.758;6.360;2022-08-25T07:15:37;23.20;96.50
54614;DHT22;40514;52.758;6.360;2022-08-25T07:18:03;23.30;96.40
54614;DHT22;40514;52.758;6.360;2022-08-25T07:20:29;23.40;96.10
54614;DHT22;40514;52.758;6.360;2022-08-25T07:22:56;23.50;96.00
54614;DHT22;40514;52.758;6.360;2022-08-25T07:25:22;23.60;95.90
54614;DHT22;40514;52.758;6.360;2022-08-25T07:27:47;23.70;95.80
54614;DHT22;40514;52.758;6.360;2022-08-25T07:30:15;23.90;95.90
54614;DHT22;40514;52.758;6.360;2022-08-25T07:32:41;23.90;95.50
54614;DHT22;40514;52.758;6.360;2022-08-25T07:35:07;24.00;95.30
54614;DHT22;40514;52.758;6.360;2022-08-25T07:37:48;24.10;95.50
54614;DHT22;40514;52.758;6.360;2022-08-25T07:40:20;24.20;95.30
54614;DHT22;40514;52.758;6.360;2022-08-25T07:42:51;24.40;94.70
54614;DHT22;40514;52.758;6.360;2022-08-25T07:45:17;24.40;94.70
54614;DHT22;40514;52.758;6.360;2022-08-25T07:47:43;24.50;94.70
54614;DHT22;40514;52.758;6.360;2022-08-25T07:50:10;24.70;94.60
54614;DHT22;40514;52.758;6.360;2022-08-25T07:52:37;24.70;94.30
54614;DHT22;40514;52.758;6.360;2022-08-25T07:55:03;24.80;94.10
54614;DHT22;40514;52.758;6.360;2022-08-25T07:57:29;24.90;93.90
54614;DHT22;40514;52.758;6.360;2022-08-25T07:59:55;25.00;93.70
54614;DHT22;40514;52.758;6.360;2022-08-25T08:02:22;25.10;93.90
54614;DHT22;40514;52.758;6.360;2022-08-25T08:04:49;25.20;93.70
54614;DHT22;40514;52.758;6.360;2022-08-25T08:07:22;25.30;93.30
54614;DHT22;40514;52.758;6.360;2022-08-25T08:09:47;25.40;93.00
54614;DHT22;40514;52.758;6.360;2022-08-25T08:12:13;25.40;92.80
54614;DHT22;40514;52.758;6.360;2022-08-25T08:14:39;25.50;92.90
54614;DHT22;40514;52.758;6.360;2022-08-25T08:17:06;25.70;92.70
54614;DHT22;40514;52.758;6.360;2022-08-25T08:19:32;25.70;92.20
54614;DHT22;40514;52.758;6.360;2022-08-25T08:21:59;25.90;92.00
54614;DHT22;40514;52.758;6.360;2022-08-25T08:24:25;26.00;92.00
54614;DHT22;40514;52.758;6.360;2022-08-25T08:26:50;26.20;91.80
54614;DHT22;40514;52.758;6.360;2022-08-25T08:29:16;26.30;91.40
54614;DHT22;40514;52.758;6.360;2022-08-25T08:31:44;26.50;91.20
54614;DHT22;40514;52.758;6.360;2022-08-25T08:34:09;26.70;91.00
54614;DHT22;40514;52.758;6.360;2022-08-25T08:36:36;26.90;91.00
54614;DHT22;40514;52.758;6.360;2022-08-25T08:39:02;27.10;90.60
54614;DHT22;40514;52.758;6.360;2022-08-25T08:41:51;27.30;90.10
54614;DHT22;40514;52.758;6.360;2022-08-25T08:47:25;27.40;88.10
54614;DHT22;40514;52.758;6.360;2022-08-25T08:52:43;27.80;85.00
54614;DHT22;40514;52.758;6.360;2022-08-25T08:57:48;28.20;84.00
54614;DHT22;40514;52.758;6.360;2022-08-25T09:00:14;28.40;83.10
54614;DHT22;40514;52.758;6.360;2022-08-25T09:03:06;28.70;82.60
54614;DHT22;40514;52.758;6.360;2022-08-25T09:05:45;28.90;80.60
54614;DHT22;40514;52.758;6.360;2022-08-25T09:08:12;29.20;79.60
54614;DHT22;40514;52.758;6.360;2022-08-25T09:13:55;29.80;76.60
54614;DHT22;40514;52.758;6.360;2022-08-25T09:19:44;30.70;73.30
54614;DHT22;40514;52.758;6.360;2022-08-25T09:25:17;32.00;68.70
54614;DHT22;40514;52.758;6.360;2022-08-25T09:30:43;33.20;61.20
54614;DHT22;40514;52.758;6.360;2022-08-25T09:33:17;33.80;63.10
54614;DHT22;40514;52.758;6.360;2022-08-25T09:35:43;34.00;59.90
54614;DHT22;40514;52.758;6.360;2022-08-25T09:38:12;34.40;58.90
54614;DHT22;40514;52.758;6.360;2022-08-25T09:40:42;34.70;58.30
54614;DHT22;40514;52.758;6.360;2022-08-25T09:45:59;35.20;55.50
54614;DHT22;40514;52.758;6.360;2022-08-25T09:48:32;35.50;56.00
54614;DHT22;40514;52.758;6.360;2022-08-25T09:53:58;36.10;52.40
54614;DHT22;40514;52.758;6.360;2022-08-25T09:56:28;36.40;51.20
54614;DHT22;40514;52.758;6.360;2022-08-25T09:58:56;36.50;51.60
54614;DHT22;40514;52.758;6.360;2022-08-25T10:02:21;36.60;51.70
54614;DHT22;40514;52.758;6.360;2022-08-25T10:04:48;36.80;49.30
54614;DHT22;40514;52.758;6.360;2022-08-25T10:07:38;36.80;50.50
54614;DHT22;40514;52.758;6.360;2022-08-25T10:12:52;37.30;48.90
54614;DHT22;40514;52.758;6.360;2022-08-25T10:15:31;37.60;49.00
54614;DHT22;40514;52.758;6.360;2022-08-25T10:20:43;37.90;46.00
54614;DHT22;40514;52.758;6.360;2022-08-25T10:23:26;38.20;47.70
54614;DHT22;40514;52.758;6.360;2022-08-25T10:25:52;38.30;47.00
54614;DHT22;40514;52.758;6.360;2022-08-25T10:28:36;38.20;46.70
54614;DHT22;40514;52.758;6.360;2022-08-25T10:31:21;38.20;45.20
54614;DHT22;40514;52.758;6.360;2022-08-25T10:33:51;38.30;45.60
54614;DHT22;40514;52.758;6.360;2022-08-25T10:36:22;38.30;46.30
54614;DHT22;40514;52.758;6.360;2022-08-25T10:50:26;36.00;45.40
54614;DHT22;40514;52.758;6.360;2022-08-25T10:55:59;35.30;46.50
54614;DHT22;40514;52.758;6.360;2022-08-25T11:01:33;34.80;47.30
54614;DHT22;40514;52.758;6.360;2022-08-25T11:04:06;34.70;47.50
54614;DHT22;40514;52.758;6.360;2022-08-25T11:06:56;34.50;47.60
54614;DHT22;40514;52.758;6.360;2022-08-25T11:09:28;34.40;47.30
54614;DHT22;40514;52.758;6.360;2022-08-25T11:12:01;34.40;47.50
54614;DHT22;40514;52.758;6.360;2022-08-25T11:14:47;34.40;48.10
54614;DHT22;40514;52.758;6.360;2022-08-25T11:17:24;34.30;47.90
54614;DHT22;40514;52.758;6.360;2022-08-25T11:19:54;34.20;47.50
54614;DHT22;40514;52.758;6.360;2022-08-25T11:25:16;34.30;46.70
54614;DHT22;40514;52.758;6.360;2022-08-25T11:28:10;34.20;45.70
54614;DHT22;40514;52.758;6.360;2022-08-25T11:30:37;34.20;45.90
54614;DHT22;40514;52.758;6.360;2022-08-25T11:33:04;34.00;45.60
54614;DHT22;40514;52.758;6.360;2022-08-25T11:35:41;34.00;45.90
54614;DHT22;40514;52.758;6.360;2022-08-25T11:51:51;33.70;45.10
54614;DHT22;40514;52.758;6.360;2022-08-25T11:54:18;33.80;45.10
54614;DHT22;40514;52.758;6.360;2022-08-25T12:02:52;33.80;44.10
54614;DHT22;40514;52.758;6.360;2022-08-25T12:10:53;33.70;44.20
54614;DHT22;40514;52.758;6.360;2022-08-25T12:13:23;33.80;44.80
54614;DHT22;40514;52.758;6.360;2022-08-25T12:24:07;33.60;44.80
54614;DHT22;40514;52.758;6.360;2022-08-25T12:26:54;33.60;44.20
54614;DHT22;40514;52.758;6.360;2022-08-25T12:37:24;33.40;44.30
54614;DHT22;40514;52.758;6.360;2022-08-25T12:42:40;33.50;44.80
54614;DHT22;40514;52.758;6.360;2022-08-25T12:47:44;33.60;44.30
54614;DHT22;40514;52.758;6.360;2022-08-25T12:50:41;33.60;43.70
54614;DHT22;40514;52.758;6.360;2022-08-25T12:53:16;33.50;43.80
54614;DHT22;40514;52.758;6.360;2022-08-25T12:55:47;33.40;43.00
54614;DHT22;40514;52.758;6.360;2022-08-25T12:58:14;33.40;43.30
54614;DHT22;40514;52.758;6.360;2022-08-25T13:06:24;33.20;42.40
54614;DHT22;40514;52.758;6.360;2022-08-25T13:11:57;33.10;41.80
54614;DHT22;40514;52.758;6.360;2022-08-25T13:14:36;32.90;41.80
54614;DHT22;40514;52.758;6.360;2022-08-25T13:17:02;32.80;42.00
54614;DHT22;40514;52.758;6.360;2022-08-25T13:19:28;32.80;42.10
54614;DHT22;40514;52.758;6.360;2022-08-25T13:21:55;32.70;43.00
54614;DHT22;40514;52.758;6.360;2022-08-25T13:24:24;32.80;42.90
54614;DHT22;40514;52.758;6.360;2022-08-25T13:27:02;32.70;42.80
54614;DHT22;40514;52.758;6.360;2022-08-25T13:29:34;32.80;43.40
54614;DHT22;40514;52.758;6.360;2022-08-25T13:32:06;32.80;43.70
54614;DHT22;40514;52.758;6.360;2022-08-25T13:34:37;32.90;43.40
54614;DHT22;40514;52.758;6.360;2022-08-25T13:37:07;32.80;43.50
54614;DHT22;40514;52.758;6.360;2022-08-25T13:40:08;32.90;44.00
54614;DHT22;40514;52.758;6.360;2022-08-25T13:42:34;32.80;43.10
54614;DHT22;40514;52.758;6.360;2022-08-25T13:45:03;32.70;43.70
54614;DHT22;40514;52.758;6.360;2022-08-25T13:47:40;32.70;43.80
54614;DHT22;40514;52.758;6.360;2022-08-25T13:50:34;32.70;43.80
54614;DHT22;40514;52.758;6.360;2022-08-25T13:53:21;32.60;43.80
54614;DHT22;40514;52.758;6.360;2022-08-25T13:55:50;32.50;44.40
54614;DHT22;40514;52.758;6.360;2022-08-25T13:58:22;32.50;44.30
54614;DHT22;40514;52.758;6.360;2022-08-25T14:01:30;32.50;44.50
54614;DHT22;40514;52.758;6.360;2022-08-25T14:03:57;32.40;44.40
54614;DHT22;40514;52.758;6.360;2022-08-25T14:06:41;32.40;44.40
54614;DHT22;40514;52.758;6.360;2022-08-25T14:09:13;32.30;43.40
54614;DHT22;40514;52.758;6.360;2022-08-25T14:14:08;32.20;44.60
54614;DHT22;40514;52.758;6.360;2022-08-25T14:16:39;32.20;44.70
54614;DHT22;40514;52.758;6.360;2022-08-25T14:19:15;32.20;45.20
54614;DHT22;40514;52.758;6.360;2022-08-25T14:21:41;32.20;45.80
54614;DHT22;40514;52.758;6.360;2022-08-25T14:24:07;32.20;45.50
54614;DHT22;40514;52.758;6.360;2022-08-25T14:26:33;32.10;45.70
54614;DHT22;40514;52.758;6.360;2022-08-25T14:28:58;32.10;45.90
54614;DHT22;40514;52.758;6.360;2022-08-25T14:31:27;32.10;45.70
54614;DHT22;40514;52.758;6.360;2022-08-25T14:33:57;32.00;45.70
54614;DHT22;40514;52.758;6.360;2022-08-25T14:36:23;32.00;45.90
54614;DHT22;40514;52.758;6.360;2022-08-25T14:38:49;31.90;45.90
54614;DHT22;40514;52.758;6.360;2022-08-25T14:41:15;31.90;46.60
54614;DHT22;40514;52.758;6.360;2022-08-25T14:43:41;31.80;46.10
54614;DHT22;40514;52.758;6.360;2022-08-25T14:46:17;31.80;46.40
54614;DHT22;40514;52.758;6.360;2022-08-25T14:48:45;31.80;47.40
54614;DHT22;40514;52.758;6.360;2022-08-25T14:51:13;31.70;47.70
54614;DHT22;40514;52.758;6.360;2022-08-25T14:53:40;31.70;48.10
54614;DHT22;40514;52.758;6.360;2022-08-25T14:56:07;31.70;48.40
54614;DHT22;40514;52.758;6.360;2022-08-25T14:58:33;31.70;48.40
54614;DHT22;40514;52.758;6.360;2022-08-25T15:00:58;31.70;48.30
54614;DHT22;40514;52.758;6.360;2022-08-25T15:03:30;31.60;48.10
54614;DHT22;40514;52.758;6.360;2022-08-25T15:06:02;31.60;48.40
54614;DHT22;40514;52.758;6.360;2022-08-25T15:08:27;31.50;48.60
54614;DHT22;40514;52.758;6.360;2022-08-25T15:11:12;31.50;49.10
54614;DHT22;40514;52.758;6.360;2022-08-25T15:13:39;31.40;49.30
54614;DHT22;40514;52.758;6.360;2022-08-25T15:16:05;31.40;49.10
54614;DHT22;40514;52.758;6.360;2022-08-25T15:18:31;31.30;49.30
54614;DHT22;40514;52.758;6.360;2022-08-25T15:20:57;31.30;49.50
54614;DHT22;40514;52.758;6.360;2022-08-25T15:23:22;31.30;49.10
54614;DHT22;40514;52.758;6.360;2022-08-25T15:25:49;31.30;48.90
54614;DHT22;40514;52.758;6.360;2022-08-25T15:28:15;31.30;48.90
54614;DHT22;40514;52.758;6.360;2022-08-25T15:30:41;31.20;49.40
54614;DHT22;40514;52.758;6.360;2022-08-25T15:33:07;31.30;49.90
54614;DHT22;40514;52.758;6.360;2022-08-25T15:35:33;31.20;50.10
54614;DHT22;40514;52.758;6.360;2022-08-25T15:37:59;31.20;50.50
54614;DHT22;40514;52.758;6.360;2022-08-25T15:40:26;31.20;50.80
54614;DHT22;40514;52.758;6.360;2022-08-25T15:42:52;31.10;50.50
54614;DHT22;40514;52.758;6.360;2022-08-25T15:45:17;31.10;50.90
54614;DHT22;40514;52.758;6.360;2022-08-25T15:47:43;31.00;50.10
54614;DHT22;40514;52.758;6.360;2022-08-25T15:50:16;31.10;50.00
54614;DHT22;40514;52.758;6.360;2022-08-25T15:52:42;31.00;50.10
54614;DHT22;40514;52.758;6.360;2022-08-25T15:55:08;31.00;50.00
54614;DHT22;40514;52.758;6.360;2022-08-25T15:57:34;31.00;49.90
54614;DHT22;40514;52.758;6.360;2022-08-25T16:00:03;31.00;50.30
54614;DHT22;40514;52.758;6.360;2022-08-25T16:02:29;30.90;49.90
54614;DHT22;40514;52.758;6.360;2022-08-25T16:04:56;30.90;50.10
54614;DHT22;40514;52.758;6.360;2022-08-25T16:07:22;30.80;50.40
54614;DHT22;40514;52.758;6.360;2022-08-25T16:09:48;30.90;50.30
54614;DHT22;40514;52.758;6.360;2022-08-25T16:12:13;30.80;50.40
54614;DHT22;40514;52.758;6.360;2022-08-25T16:14:39;30.80;50.30
54614;DHT22;40514;52.758;6.360;2022-08-25T16:17:05;30.90;50.50
54614;DHT22;40514;52.758;6.360;2022-08-25T16:19:31;30.70;50.80
54614;DHT22;40514;52.758;6.360;2022-08-25T16:21:58;30.70;50.90
54614;DHT22;40514;52.758;6.360;2022-08-25T16:24:23;30.60;51.30
54614;DHT22;40514;52.758;6.360;2022-08-25T16:26:50;30.60;51.90
54614;DHT22;40514;52.758;6.360;2022-08-25T16:29:16;30.60;52.10
54614;DHT22;40514;52.758;6.360;2022-08-25T16:31:42;30.50;52.10
54614;DHT22;40514;52.758;6.360;2022-08-25T16:34:08;30.50;51.80
54614;DHT22;40514;52.758;6.360;2022-08-25T16:36:35;30.50;51.80
54614;DHT22;40514;52.758;6.360;2022-08-25T16:39:01;30.40;51.70
54614;DHT22;40514;52.758;6.360;2022-08-25T16:41:29;30.40;52.70
54614;DHT22;40514;52.758;6.360;2022-08-25T16:44:03;30.50;52.50
54614;DHT22;40514;52.758;6.360;2022-08-25T16:46:32;30.40;52.40
54614;DHT22;40514;52.758;6.360;2022-08-25T16:49:02;30.30;52.30
54614;DHT22;40514;52.758;6.360;2022-08-25T16:51:28;30.30;52.20
54614;DHT22;40514;52.758;6.360;2022-08-25T16:53:54;30.40;52.70
54614;DHT22;40514;52.758;6.360;2022-08-25T16:56:38;30.30;52.70
54614;DHT22;40514;52.758;6.360;2022-08-25T16:59:08;30.20;52.90
54614;DHT22;40514;52.758;6.360;2022-08-25T17:01:34;30.30;53.40
54614;DHT22;40514;52.758;6.360;2022-08-25T17:04:01;30.20;53.80
54614;DHT22;40514;52.758;6.360;2022-08-25T17:06:28;30.20;53.90
54614;DHT22;40514;52.758;6.360;2022-08-25T17:08:54;30.20;53.80
54614;DHT22;40514;52.758;6.360;2022-08-25T17:11:29;30.10;53.50
54614;DHT22;40514;52.758;6.360;2022-08-25T17:13:58;30.10;53.40
54614;DHT22;40514;52.758;6.360;2022-08-25T17:16:27;30.10;53.90
54614;DHT22;40514;52.758;6.360;2022-08-25T17:18:54;30.10;54.20
54614;DHT22;40514;52.758;6.360;2022-08-25T17:21:20;30.00;54.30
54614;DHT22;40514;52.758;6.360;2022-08-25T17:23:47;30.00;54.30
54614;DHT22;40514;52.758;6.360;2022-08-25T17:26:15;29.90;54.10
54614;DHT22;40514;52.758;6.360;2022-08-25T17:28:42;29.90;54.60
54614;DHT22;40514;52.758;6.360;2022-08-25T17:31:09;29.80;54.70
54614;DHT22;40514;52.758;6.360;2022-08-25T17:33:35;29.80;55.40